createdAt,value
2023-09-27T00:00:49.327Z,84.48
2023-09-27T00:03:33.666Z,84.28
2023-09-27T00:06:18.015Z,84.25
2023-09-27T00:09:02.172Z,83.89
2023-09-27T00:11:46.386Z,83.62
2023-09-27T00:14:30.592Z,83.56
2023-09-27T00:17:16.224Z,83.88
2023-09-27T00:20:00.917Z,83.90
2023-09-27T00:22:46.635Z,83.90
2023-09-27T00:25:31.256Z,83.56
2023-09-27T00:28:15.392Z,84.61
2023-09-27T00:30:59.629Z,84.47
2023-09-27T00:33:45.291Z,84.87
2023-09-27T00:36:29.719Z,85.53
2023-09-27T00:39:14.243Z,85.38
2023-09-27T00:41:58.726Z,86.70
2023-09-27T00:44:42.879Z,87.45
2023-09-27T00:47:27.136Z,87.67
2023-09-27T00:50:13.106Z,87.65
2023-09-27T00:52:57.402Z,88.35
2023-09-27T00:55:42.157Z,89.08
2023-09-27T00:58:27.017Z,90.50
2023-09-27T01:01:11.887Z,90.12
2023-09-27T01:03:56.352Z,91.05
2023-09-27T01:06:42.336Z,90.66
2023-09-27T01:09:26.430Z,90.62
2023-09-27T01:12:10.691Z,91.71
2023-09-27T01:14:54.850Z,90.67
2023-09-27T01:17:38.986Z,91.70
2023-09-27T01:20:23.233Z,91.87
2023-09-27T01:23:09.331Z,93.57
2023-09-27T01:26:00.332Z,93.48
2023-09-27T01:28:46.944Z,94.29
2023-09-27T01:31:31.303Z,94.59
2023-09-27T01:34:15.674Z,94.11
2023-09-27T01:37:00.498Z,94.93
2023-09-27T01:39:47.152Z,94.47
2023-09-27T01:42:31.298Z,94.81
2023-09-27T01:45:15.496Z,95.75
2023-09-27T01:48:00.120Z,95.18
2023-09-27T01:50:44.463Z,95.20
2023-09-27T01:53:28.608Z,96.35
2023-09-27T01:56:15.278Z,97.00
2023-09-27T01:58:59.435Z,96.75
2023-09-27T02:01:43.825Z,96.95
2023-09-27T02:04:28.027Z,97.26
2023-09-27T02:07:12.388Z,97.18
2023-09-27T02:09:56.639Z,97.76
2023-09-27T02:12:42.707Z,98.49
2023-09-27T02:15:27.156Z,99.00
2023-09-27T02:18:13.087Z,99.34
2023-09-27T02:20:58.113Z,100.00
2023-09-27T02:24:02.208Z,99.83
2023-09-27T02:26:46.453Z,99.84
2023-09-27T02:29:32.506Z,100.00
2023-09-27T02:32:16.646Z,100.00
2023-09-27T02:35:00.791Z,100.00
2023-09-27T02:37:46.568Z,100.00
2023-09-27T02:40:30.702Z,100.00
2023-09-27T02:43:14.710Z,100.00
2023-09-27T02:46:00.361Z,100.00
2023-09-27T02:48:44.752Z,100.00
2023-09-27T02:51:29.607Z,100.00
2023-09-27T02:54:15.407Z,100.00
2023-09-27T02:56:59.496Z,100.00
2023-09-27T02:59:43.844Z,100.00
2023-09-27T03:02:29.831Z,100.00
2023-09-27T03:05:14.315Z,100.00
2023-09-27T03:07:58.766Z,100.00
2023-09-27T03:10:43.364Z,100.00
2023-09-27T03:13:27.612Z,100.00
2023-09-27T03:16:12.100Z,100.00
2023-09-27T03:18:59.633Z,100.00
2023-09-27T03:21:43.775Z,100.00
2023-09-27T03:24:28.140Z,100.00
2023-09-27T03:27:12.411Z,100.00
2023-09-27T03:29:56.585Z,100.00
2023-09-27T03:32:40.820Z,100.00
2023-09-27T03:35:26.690Z,100.00
2023-09-27T03:38:11.158Z,100.00
2023-09-27T03:40:55.372Z,100.00
2023-09-27T03:43:40.027Z,100.00
2023-09-27T03:46:24.535Z,100.00
2023-09-27T03:49:08.820Z,100.00
2023-09-27T03:51:54.592Z,100.00
2023-09-27T03:54:39.075Z,100.00
2023-09-27T03:57:23.430Z,100.00
2023-09-27T04:00:10.520Z,100.00
2023-09-27T04:02:57.095Z,100.00
2023-09-27T04:05:41.871Z,100.00
2023-09-27T04:08:28.091Z,100.00
2023-09-27T04:11:13.030Z,100.00
2023-09-27T04:13:57.381Z,100.00
2023-09-27T04:16:41.572Z,100.00
2023-09-27T04:19:25.783Z,100.00
2023-09-27T04:22:10.095Z,100.00
2023-09-27T04:24:56.012Z,100.00
2023-09-27T04:27:40.231Z,100.00
2023-09-27T04:30:25.981Z,100.00
2023-09-27T04:33:10.448Z,100.00
2023-09-27T04:35:54.702Z,100.00
2023-09-27T04:38:39.156Z,100.00
2023-09-27T04:41:24.706Z,100.00
2023-09-27T04:44:09.181Z,100.00
2023-09-27T04:46:53.604Z,100.00
2023-09-27T04:49:37.951Z,100.00
2023-09-27T04:52:22.819Z,100.00
2023-09-27T04:55:08.683Z,100.00
2023-09-27T04:57:55.827Z,100.00
2023-09-27T05:00:40.482Z,100.00
2023-09-27T05:03:24.823Z,100.00
2023-09-27T05:06:09.223Z,100.00
2023-09-27T05:08:53.853Z,100.00
2023-09-27T05:11:38.231Z,100.00
2023-09-27T05:14:24.201Z,100.00
2023-09-27T05:17:08.506Z,100.00
2023-09-27T05:19:53.825Z,100.00
2023-09-27T05:22:37.976Z,100.00
2023-09-27T05:25:24.214Z,100.00
2023-09-27T05:28:08.776Z,100.00
2023-09-27T05:30:54.277Z,100.00
2023-09-27T05:33:38.576Z,100.00
2023-09-27T05:36:22.772Z,100.00
2023-09-27T05:39:09.440Z,100.00
2023-09-27T05:41:53.872Z,100.00
2023-09-27T05:44:38.085Z,100.00
2023-09-27T05:47:25.846Z,100.00
2023-09-27T05:50:12.700Z,100.00
2023-09-27T05:52:57.411Z,100.00
2023-09-27T05:55:42.751Z,100.00
2023-09-27T05:58:26.754Z,100.00
2023-09-27T06:01:11.800Z,100.00
2023-09-27T06:03:57.548Z,100.00
2023-09-27T06:06:41.435Z,100.00
2023-09-27T06:09:26.617Z,100.00
2023-09-27T06:12:11.598Z,100.00
2023-09-27T06:14:56.279Z,100.00
2023-09-27T06:17:40.423Z,100.00
2023-09-27T06:20:31.408Z,100.00
2023-09-27T06:23:16.015Z,100.00
2023-09-27T06:26:00.110Z,100.00
2023-09-27T06:28:44.115Z,99.98
2023-09-27T06:31:28.693Z,99.52
2023-09-27T06:34:12.546Z,98.61
2023-09-27T06:36:57.942Z,98.88
2023-09-27T06:39:42.437Z,97.09
2023-09-27T06:42:26.440Z,97.20
2023-09-27T06:45:11.592Z,94.74
2023-09-27T06:47:57.515Z,96.07
2023-09-27T06:50:43.572Z,95.21
2023-09-27T06:53:33.104Z,93.76
2023-09-27T06:56:17.653Z,93.62
2023-09-27T06:59:02.049Z,92.30
2023-09-27T07:01:46.109Z,91.58
2023-09-27T07:04:29.953Z,88.93
2023-09-27T07:07:14.747Z,87.25
2023-09-27T07:10:00.166Z,86.11
2023-09-27T07:12:44.374Z,86.81
2023-09-27T07:15:28.529Z,86.64
2023-09-27T07:18:12.526Z,86.87
2023-09-27T07:20:56.818Z,85.61
2023-09-27T07:23:40.840Z,81.51
2023-09-27T07:26:26.363Z,79.32
2023-09-27T07:29:10.916Z,78.37
2023-09-27T07:31:54.881Z,79.07
2023-09-27T07:34:39.059Z,77.72
2023-09-27T07:37:23.066Z,76.29
2023-09-27T07:40:11.003Z,75.10
2023-09-27T07:42:56.535Z,75.53
2023-09-27T07:45:43.523Z,73.70
2023-09-27T07:48:27.733Z,73.30
2023-09-27T07:51:15.706Z,71.93
2023-09-27T07:53:59.768Z,72.88
2023-09-27T07:56:45.207Z,74.22
2023-09-27T07:59:32.514Z,75.28
2023-09-27T08:02:16.732Z,73.68
2023-09-27T08:05:01.015Z,72.82
2023-09-27T08:07:46.847Z,72.40
2023-09-27T08:10:32.048Z,64.09
2023-09-27T08:13:17.519Z,53.57
2023-09-27T08:16:05.163Z,51.08
2023-09-27T08:18:49.442Z,51.42
2023-09-27T08:21:33.566Z,50.94
2023-09-27T08:24:18.661Z,49.44
2023-09-27T08:27:03.251Z,47.52
2023-09-27T08:29:47.816Z,47.85
2023-09-27T08:32:33.614Z,46.42
2023-09-27T08:35:18.470Z,46.11
2023-09-27T08:38:02.623Z,46.45
2023-09-27T08:40:48.400Z,46.66
2023-09-27T08:43:34.618Z,45.84
2023-09-27T08:46:20.122Z,45.20
2023-09-27T08:49:06.103Z,46.22
2023-09-27T08:51:51.432Z,46.16
2023-09-27T08:54:35.464Z,46.17
2023-09-27T08:57:19.954Z,44.14
2023-09-27T09:00:08.258Z,42.97
2023-09-27T09:02:59.585Z,42.28
2023-09-27T09:05:46.784Z,42.39
2023-09-27T09:08:43.370Z,42.70
2023-09-27T09:11:28.546Z,42.86
2023-09-27T09:14:12.564Z,42.38
2023-09-27T09:16:56.883Z,42.54
2023-09-27T09:19:44.818Z,42.35
2023-09-27T09:22:31.909Z,42.43
2023-09-27T09:25:15.867Z,42.27
2023-09-27T09:28:08.894Z,40.48
2023-09-27T09:31:05.414Z,40.85
2023-09-27T09:34:04.209Z,39.32
2023-09-27T09:36:52.328Z,39.56
2023-09-27T09:39:38.606Z,38.60
2023-09-27T09:42:34.385Z,39.86
2023-09-27T09:45:19.131Z,39.11
2023-09-27T09:48:04.180Z,39.93
2023-09-27T09:50:50.909Z,40.38
2023-09-27T09:53:40.115Z,38.00
2023-09-27T09:56:33.199Z,38.84
2023-09-27T09:59:27.296Z,37.94
2023-09-27T10:02:21.637Z,37.73
2023-09-27T10:05:09.153Z,38.85
2023-09-27T10:07:54.051Z,37.83
2023-09-27T10:10:38.941Z,38.78
2023-09-27T10:13:24.982Z,36.50
2023-09-27T10:16:11.375Z,36.81
2023-09-27T10:18:57.387Z,37.61
2023-09-27T10:22:05.847Z,36.25
2023-09-27T10:24:50.655Z,36.05
2023-09-27T10:28:09.216Z,36.87
2023-09-27T10:31:13.468Z,35.97
2023-09-27T10:33:57.705Z,35.37
2023-09-27T10:36:59.685Z,36.11
2023-09-27T10:40:20.530Z,36.32
2023-09-27T10:43:05.495Z,36.54
2023-09-27T10:45:57.479Z,35.41
2023-09-27T10:48:44.668Z,35.51
2023-09-27T10:51:29.099Z,36.50
2023-09-27T10:54:13.461Z,35.95
2023-09-27T10:56:57.770Z,37.09
2023-09-27T10:59:42.689Z,36.94
2023-09-27T11:02:31.082Z,35.80
2023-09-27T11:05:16.728Z,36.33
2023-09-27T11:08:00.892Z,38.64
2023-09-27T11:10:45.008Z,38.57
2023-09-27T11:13:31.030Z,37.45
2023-09-27T11:16:16.907Z,37.51
2023-09-27T11:19:01.101Z,37.69
2023-09-27T11:21:47.156Z,38.79
2023-09-27T11:24:39.861Z,37.90
2023-09-27T11:27:24.279Z,36.36
2023-09-27T11:30:11.255Z,37.16
2023-09-27T11:32:55.300Z,38.97
2023-09-27T11:35:48.962Z,39.34
2023-09-27T11:38:34.381Z,40.34
2023-09-27T11:41:20.938Z,39.29
2023-09-27T11:44:17.925Z,39.42
2023-09-27T11:47:09.121Z,39.91
2023-09-27T11:49:53.621Z,40.00
2023-09-27T11:52:37.659Z,38.94
2023-09-27T11:55:23.074Z,38.79
2023-09-27T11:58:07.063Z,39.36
2023-09-27T12:00:50.989Z,38.95
2023-09-27T12:03:35.327Z,36.82
2023-09-27T12:06:19.757Z,37.41
2023-09-27T12:09:06.616Z,38.32
2023-09-27T12:11:52.170Z,38.12
2023-09-27T12:14:36.644Z,38.15
2023-09-27T12:17:21.141Z,38.43
2023-09-27T12:20:06.483Z,37.85
2023-09-27T12:22:51.601Z,37.52
2023-09-27T12:25:35.745Z,37.44
2023-09-27T12:28:22.059Z,38.21
2023-09-27T12:31:07.276Z,38.57
2023-09-27T12:33:51.850Z,37.27
2023-09-27T12:36:36.109Z,36.05
2023-09-27T12:39:20.799Z,37.18
2023-09-27T12:42:05.459Z,36.30
2023-09-27T12:44:51.806Z,37.17
2023-09-27T12:47:36.305Z,38.24
2023-09-27T12:50:25.331Z,38.12
2023-09-27T12:53:09.598Z,38.11
2023-09-27T12:55:53.618Z,37.47
2023-09-27T12:58:37.720Z,38.89
2023-09-27T13:01:23.142Z,39.13
2023-09-27T13:04:08.362Z,38.49
2023-09-27T13:06:53.065Z,38.79
2023-09-27T13:09:37.429Z,40.26
2023-09-27T13:12:21.488Z,40.09
2023-09-27T13:15:07.156Z,38.32
2023-09-27T13:17:52.759Z,38.21
2023-09-27T13:20:36.938Z,38.02
2023-09-27T13:23:21.192Z,37.42
2023-09-27T13:26:05.566Z,38.74
2023-09-27T13:28:49.688Z,38.34
2023-09-27T13:31:34.848Z,39.03
2023-09-27T13:34:20.541Z,37.99
2023-09-27T13:37:04.985Z,37.69
2023-09-27T13:39:49.215Z,37.56
2023-09-27T13:42:34.000Z,37.34
2023-09-27T13:45:18.400Z,37.79
2023-09-27T13:48:02.962Z,37.78
2023-09-27T13:50:48.935Z,39.26
2023-09-27T13:53:33.277Z,41.31
2023-09-27T13:56:17.529Z,40.65
2023-09-27T13:59:01.650Z,40.19
2023-09-27T14:01:45.772Z,40.22
2023-09-27T14:04:29.780Z,39.88
2023-09-27T14:07:15.423Z,37.77
2023-09-27T14:10:00.201Z,37.33
2023-09-27T14:12:44.696Z,39.31
2023-09-27T14:15:28.809Z,39.50
2023-09-27T14:18:13.162Z,39.72
2023-09-27T14:20:57.341Z,40.23
2023-09-27T14:23:44.356Z,40.02
2023-09-27T14:26:28.669Z,42.21
2023-09-27T14:29:22.260Z,43.21
2023-09-27T14:32:18.369Z,42.90
2023-09-27T14:35:02.791Z,44.55
2023-09-27T14:37:47.989Z,44.44
2023-09-27T14:40:33.563Z,43.63
2023-09-27T14:43:19.134Z,43.51
2023-09-27T14:46:03.275Z,44.04
2023-09-27T14:48:47.596Z,43.22
2023-09-27T14:51:31.707Z,43.98
2023-09-27T14:54:16.242Z,44.02
2023-09-27T14:57:01.850Z,44.43
2023-09-27T14:59:46.281Z,44.92
2023-09-27T15:02:32.389Z,45.75
2023-09-27T15:05:16.872Z,45.96
2023-09-27T15:08:03.430Z,46.06
2023-09-27T15:10:47.699Z,45.42
2023-09-27T15:13:35.270Z,46.20
2023-09-27T15:16:20.630Z,46.17
2023-09-27T15:19:05.223Z,46.96
2023-09-27T15:21:49.834Z,47.09
2023-09-27T15:24:40.969Z,47.27
2023-09-27T15:27:27.518Z,46.69
2023-09-27T15:30:15.788Z,47.13
2023-09-27T15:33:00.164Z,47.01
2023-09-27T15:35:59.750Z,47.12
2023-09-27T15:38:46.410Z,46.79
2023-09-27T15:41:31.382Z,47.49
2023-09-27T15:44:15.688Z,47.37
2023-09-27T15:47:01.601Z,47.99
2023-09-27T15:49:48.379Z,48.67
2023-09-27T15:52:36.717Z,48.73
2023-09-27T15:55:28.204Z,49.12
2023-09-27T15:58:14.032Z,48.79
2023-09-27T16:00:58.484Z,49.35
2023-09-27T16:03:44.183Z,49.18
2023-09-27T16:06:30.900Z,49.57
2023-09-27T16:09:16.824Z,49.32
2023-09-27T16:12:03.361Z,50.01
2023-09-27T16:14:47.473Z,50.36
2023-09-27T16:17:31.627Z,50.53
2023-09-27T16:20:17.506Z,51.34
2023-09-27T16:23:01.775Z,51.31
2023-09-27T16:25:49.950Z,51.36
2023-09-27T16:28:34.553Z,51.36
2023-09-27T16:31:22.609Z,51.92
2023-09-27T16:34:07.047Z,51.45
2023-09-27T16:36:53.992Z,51.92
2023-09-27T16:39:38.472Z,53.20
2023-09-27T16:42:25.904Z,54.35
2023-09-27T16:45:11.669Z,54.79
2023-09-27T16:47:56.177Z,55.11
2023-09-27T16:50:42.034Z,55.78
2023-09-27T16:53:29.406Z,55.39
2023-09-27T16:56:13.946Z,55.29
2023-09-27T16:58:58.325Z,55.23
2023-09-27T17:01:42.501Z,55.98
2023-09-27T17:04:29.707Z,56.70
2023-09-27T17:07:26.707Z,57.78
2023-09-27T17:10:13.575Z,57.86
2023-09-27T17:12:58.015Z,58.54
2023-09-27T17:15:46.986Z,58.72
2023-09-27T17:18:33.596Z,59.42
2023-09-27T17:21:18.384Z,59.75
2023-09-27T17:24:02.764Z,59.54
2023-09-27T17:26:50.544Z,59.95
2023-09-27T17:29:35.406Z,59.88
2023-09-27T17:32:27.184Z,60.00
2023-09-27T17:35:14.393Z,59.94
2023-09-27T17:38:03.098Z,60.20
2023-09-27T17:40:48.987Z,60.55
2023-09-27T17:43:35.916Z,60.77
2023-09-27T17:46:24.032Z,61.25
2023-09-27T17:49:09.557Z,60.60
2023-09-27T17:51:54.143Z,61.06
2023-09-27T17:54:38.279Z,61.06
2023-09-27T17:57:22.372Z,61.56
2023-09-27T18:00:10.034Z,62.06
2023-09-27T18:02:54.572Z,61.98
2023-09-27T18:05:39.192Z,62.56
2023-09-27T18:08:24.099Z,62.22
2023-09-27T18:11:10.182Z,62.52
2023-09-27T18:13:54.806Z,62.56
2023-09-27T18:16:41.533Z,63.11
2023-09-27T18:19:26.061Z,62.77
2023-09-27T18:22:10.515Z,63.36
2023-09-27T18:24:55.446Z,63.54
2023-09-27T18:27:40.098Z,63.53
2023-09-27T18:30:24.640Z,63.29
2023-09-27T18:33:10.482Z,63.59
2023-09-27T18:35:55.058Z,63.99
2023-09-27T18:38:39.421Z,63.99
2023-09-27T18:41:23.933Z,63.69
2023-09-27T18:44:08.995Z,64.52
2023-09-27T18:46:53.892Z,64.01
2023-09-27T18:49:40.336Z,64.89
2023-09-27T18:52:24.808Z,65.13
2023-09-27T18:55:10.652Z,64.56
2023-09-27T18:57:55.313Z,65.45
2023-09-27T19:00:39.815Z,65.36
2023-09-27T19:03:25.440Z,65.58
2023-09-27T19:06:15.853Z,65.77
2023-09-27T19:09:03.734Z,65.32
2023-09-27T19:11:49.314Z,66.03
2023-09-27T19:14:33.575Z,65.94
2023-09-27T19:17:20.436Z,65.70
2023-09-27T19:20:06.809Z,65.98
2023-09-27T19:22:54.582Z,66.69
2023-09-27T19:25:39.549Z,66.65
2023-09-27T19:28:28.576Z,67.31
2023-09-27T19:31:13.340Z,67.96
2023-09-27T19:33:59.226Z,67.49
2023-09-27T19:36:43.830Z,68.00
2023-09-27T19:39:32.820Z,67.62
2023-09-27T19:42:19.543Z,68.00
2023-09-27T19:45:06.798Z,68.89
2023-09-27T19:47:51.475Z,68.46
2023-09-27T19:50:36.427Z,69.43
2023-09-27T19:53:20.915Z,69.73
2023-09-27T19:56:09.852Z,69.79
2023-09-27T19:58:55.881Z,70.28
2023-09-27T20:01:40.797Z,70.72
2023-09-27T20:04:26.031Z,71.32
2023-09-27T20:07:10.466Z,71.96
2023-09-27T20:09:55.460Z,71.97
2023-09-27T20:12:41.014Z,71.99
2023-09-27T20:15:25.201Z,72.19
2023-09-27T20:18:09.134Z,72.18
2023-09-27T20:20:53.225Z,72.63
2023-09-27T20:23:37.100Z,73.67
2023-09-27T20:26:21.133Z,74.30
2023-09-27T20:29:06.786Z,74.02
2023-09-27T20:31:51.126Z,74.03
2023-09-27T20:34:35.212Z,74.28
2023-09-27T20:37:19.152Z,74.53
2023-09-27T20:40:03.139Z,75.65
2023-09-27T20:42:48.358Z,75.77
2023-09-27T20:45:34.064Z,76.46
2023-09-27T20:48:18.204Z,77.79
2023-09-27T20:51:02.174Z,77.89
2023-09-27T20:53:46.122Z,78.15
2023-09-27T20:56:30.118Z,77.99
2023-09-27T20:59:14.127Z,78.48
2023-09-27T21:01:59.691Z,80.00
2023-09-27T21:04:43.654Z,80.34
2023-09-27T21:07:27.506Z,80.72
2023-09-27T21:10:11.734Z,81.13
2023-09-27T21:12:55.912Z,80.89
2023-09-27T21:15:40.767Z,80.92
2023-09-27T21:18:26.534Z,81.24
2023-09-27T21:21:10.518Z,82.10
2023-09-27T21:23:54.861Z,82.60
2023-09-27T21:26:41.420Z,82.82
2023-09-27T21:29:26.516Z,83.43
2023-09-27T21:32:11.142Z,83.78
2023-09-27T21:34:56.464Z,84.58
2023-09-27T21:37:40.943Z,83.92
2023-09-27T21:40:25.352Z,85.04
2023-09-27T21:43:09.275Z,85.51
2023-09-27T21:45:53.279Z,85.37
2023-09-27T21:48:37.454Z,85.39
2023-09-27T21:51:22.739Z,86.15
2023-09-27T21:54:06.952Z,85.74
2023-09-27T21:56:50.873Z,86.20
2023-09-27T21:59:34.834Z,86.31
2023-09-27T22:02:19.054Z,85.98
2023-09-27T22:05:03.771Z,86.83
2023-09-27T22:07:49.308Z,86.86
2023-09-27T22:10:36.037Z,86.54
2023-09-27T22:13:29.651Z,86.91
2023-09-27T22:16:13.540Z,86.76
2023-09-27T22:19:02.154Z,86.71
2023-09-27T22:21:47.513Z,87.74
2023-09-27T22:24:33.223Z,88.10
2023-09-27T22:27:17.558Z,87.45
2023-09-27T22:30:02.130Z,88.18
2023-09-27T22:32:47.592Z,88.53
2023-09-27T22:35:32.005Z,89.12
2023-09-27T22:38:16.527Z,89.51
2023-09-27T22:41:01.779Z,90.29
2023-09-27T22:43:46.364Z,90.37
2023-09-27T22:46:30.305Z,90.39
2023-09-27T22:49:14.226Z,90.56
2023-09-27T22:51:58.288Z,90.63
2023-09-27T22:54:42.269Z,90.65
2023-09-27T22:57:29.238Z,90.31
2023-09-27T23:00:14.048Z,90.24
2023-09-27T23:02:59.177Z,90.01
2023-09-27T23:05:45.468Z,91.07
2023-09-27T23:08:30.875Z,91.48
2023-09-27T23:11:14.751Z,91.63
2023-09-27T23:14:00.294Z,91.91
2023-09-27T23:16:47.085Z,91.54
2023-09-27T23:19:32.694Z,93.12
2023-09-27T23:22:17.290Z,92.65
2023-09-27T23:25:33.970Z,92.23
2023-09-27T23:28:18.779Z,92.43
2023-09-27T23:31:09.558Z,92.61
2023-09-27T23:33:54.839Z,93.49
2023-09-27T23:36:40.420Z,94.38
2023-09-27T23:39:23.308Z,93.83
2023-09-27T23:42:22.965Z,94.08
2023-09-27T23:45:10.650Z,93.96
2023-09-27T23:47:57.534Z,94.33
2023-09-27T23:50:42.789Z,95.49
2023-09-27T23:53:26.622Z,95.61
2023-09-27T23:56:11.043Z,95.82
2023-09-27T23:58:58.417Z,97.24
